createdAt,value
2018-05-10T00:01:29.664Z,34.80
2018-05-10T00:03:58.089Z,36.20
2018-05-10T00:06:26.305Z,35.13
2018-05-10T00:08:55.812Z,35.47
2018-05-10T00:11:24.001Z,36.03
2018-05-10T00:13:52.744Z,37.53
2018-05-10T00:16:20.960Z,35.23
2018-05-10T00:18:49.189Z,36.00
2018-05-10T00:21:17.854Z,36.00
2018-05-10T00:23:46.075Z,34.30
2018-05-10T00:26:14.395Z,34.97
2018-05-10T00:28:42.971Z,38.23
2018-05-10T00:31:11.173Z,36.20
2018-05-10T00:33:39.388Z,35.57
2018-05-10T00:36:08.065Z,35.50
2018-05-10T00:38:36.299Z,37.53
2018-05-10T00:41:04.622Z,36.87
2018-05-10T00:43:33.331Z,37.70
2018-05-10T00:46:01.525Z,37.13
2018-05-10T00:48:29.765Z,39.80
2018-05-10T00:50:58.498Z,38.00
2018-05-10T00:53:26.718Z,36.03
2018-05-10T00:55:54.941Z,37.27
2018-05-10T00:58:23.706Z,38.47
2018-05-10T01:00:51.908Z,37.30
2018-05-10T01:03:20.142Z,36.17
2018-05-10T01:05:48.871Z,36.47
2018-05-10T01:08:17.044Z,35.87
2018-05-10T01:10:45.797Z,36.33
2018-05-10T01:13:14.372Z,35.37
2018-05-10T01:15:42.575Z,32.20
2018-05-10T01:18:10.955Z,30.37
2018-05-10T01:20:39.626Z,29.70
2018-05-10T01:23:07.836Z,29.90
2018-05-10T01:25:36.183Z,28.50
2018-05-10T01:28:04.649Z,30.50
2018-05-10T01:30:32.887Z,28.93
2018-05-10T01:33:01.203Z,29.13
2018-05-10T01:35:41.079Z,30.40
2018-05-10T01:38:09.291Z,30.00
2018-05-10T01:40:37.476Z,29.90
2018-05-10T01:43:05.715Z,29.83
2018-05-10T01:45:34.390Z,27.43
2018-05-10T01:48:02.615Z,27.93
2018-05-10T01:50:30.816Z,27.00
2018-05-10T01:52:59.597Z,25.87
2018-05-10T01:55:27.798Z,25.50
2018-05-10T01:57:56.016Z,22.20
2018-05-10T02:00:24.686Z,22.30
2018-05-10T02:02:52.879Z,21.37
2018-05-10T02:05:21.072Z,20.50
2018-05-10T02:07:49.761Z,20.43
2018-05-10T02:10:18.012Z,19.23
2018-05-10T02:12:46.241Z,17.80
2018-05-10T02:15:15.746Z,14.80
2018-05-10T02:17:44.012Z,13.30
2018-05-10T02:20:12.202Z,12.00
2018-05-10T02:22:41.057Z,11.07
2018-05-10T02:25:09.280Z,10.33
2018-05-10T02:27:55.595Z,9.90
2018-05-10T02:30:26.171Z,9.90
2018-05-10T02:32:54.402Z,10.17
2018-05-10T02:35:22.617Z,9.73
2018-05-10T02:37:51.304Z,9.80
2018-05-10T02:40:19.539Z,9.93
2018-05-10T02:42:47.730Z,10.37
2018-05-10T02:45:16.416Z,10.60
2018-05-10T02:47:44.680Z,11.13
2018-05-10T02:50:12.872Z,12.03
2018-05-10T02:52:41.646Z,12.80
2018-05-10T02:55:09.879Z,12.57
2018-05-10T02:57:38.058Z,12.60
2018-05-10T03:00:06.744Z,13.33
2018-05-10T03:02:34.985Z,12.93
2018-05-10T03:05:03.190Z,15.17
2018-05-10T03:07:31.912Z,17.10
2018-05-10T03:10:00.122Z,19.23
2018-05-10T03:12:28.326Z,22.73
2018-05-10T03:14:57.214Z,24.87
2018-05-10T03:17:25.446Z,25.03
2018-05-10T03:19:53.636Z,27.67
2018-05-10T03:22:22.316Z,29.23
2018-05-10T03:24:50.529Z,26.83
2018-05-10T03:27:18.732Z,30.53
2018-05-10T03:29:47.396Z,31.90
2018-05-10T03:32:15.624Z,33.27
2018-05-10T03:34:43.829Z,33.40
2018-05-10T03:37:12.472Z,32.87
2018-05-10T03:39:40.723Z,34.20
2018-05-10T03:42:08.927Z,34.23
2018-05-10T03:44:37.825Z,35.00
2018-05-10T03:47:06.068Z,34.47
2018-05-10T03:49:34.277Z,34.43
2018-05-10T03:52:02.959Z,33.90
2018-05-10T03:54:31.208Z,33.73
2018-05-10T03:56:59.395Z,32.77
2018-05-10T03:59:28.173Z,32.80
2018-05-10T04:01:56.405Z,32.33
2018-05-10T04:04:36.365Z,32.23
2018-05-10T04:07:16.509Z,33.13
2018-05-10T04:09:56.635Z,31.30
2018-05-10T04:12:24.871Z,30.30
2018-05-10T04:14:53.700Z,31.23
2018-05-10T04:17:21.897Z,30.87
2018-05-10T04:19:50.169Z,30.83
2018-05-10T04:22:18.923Z,29.33
2018-05-10T04:24:47.131Z,30.00
2018-05-10T04:27:15.348Z,28.57
2018-05-10T04:29:43.787Z,31.00
2018-05-10T04:32:12.015Z,29.47
2018-05-10T04:34:40.399Z,29.57
2018-05-10T04:37:08.985Z,29.33
2018-05-10T04:39:37.178Z,27.73
2018-05-10T04:42:06.552Z,28.43
2018-05-10T04:44:34.868Z,27.43
2018-05-10T04:47:03.583Z,26.57
2018-05-10T04:49:31.818Z,24.60
2018-05-10T04:51:59.993Z,21.87
2018-05-10T04:54:28.790Z,21.43
2018-05-10T04:56:56.983Z,19.73
2018-05-10T04:59:25.336Z,20.13
2018-05-10T05:01:54.039Z,19.23
2018-05-10T05:04:22.279Z,18.80
2018-05-10T05:06:50.468Z,15.87
2018-05-10T05:09:19.255Z,16.40
2018-05-10T05:11:47.497Z,16.30
2018-05-10T05:14:15.728Z,14.67
2018-05-10T05:16:44.338Z,14.83
2018-05-10T05:19:12.542Z,15.50
2018-05-10T05:21:40.766Z,13.73
2018-05-10T05:24:09.552Z,14.30
2018-05-10T05:26:37.769Z,13.80
2018-05-10T05:29:06.009Z,12.37
2018-05-10T05:31:34.773Z,11.87
2018-05-10T05:34:02.974Z,10.77
2018-05-10T05:36:31.291Z,9.60
2018-05-10T05:38:59.861Z,8.70
2018-05-10T05:41:28.108Z,8.50
2018-05-10T05:43:56.327Z,9.07
2018-05-10T05:46:25.040Z,8.73
2018-05-10T05:48:53.224Z,8.77
2018-05-10T05:51:21.462Z,8.87
2018-05-10T05:53:50.264Z,8.53
2018-05-10T05:56:18.469Z,9.47
2018-05-10T05:58:46.735Z,9.27
2018-05-10T06:01:15.430Z,9.67
2018-05-10T06:03:43.694Z,11.00
2018-05-10T06:06:11.939Z,11.83
2018-05-10T06:08:40.654Z,11.93
2018-05-10T06:11:08.874Z,12.47
2018-05-10T06:13:37.108Z,13.40
2018-05-10T06:16:05.899Z,13.23
2018-05-10T06:18:34.084Z,11.87
2018-05-10T06:21:02.267Z,12.50
2018-05-10T06:23:31.053Z,12.00
2018-05-10T06:25:59.267Z,12.77
2018-05-10T06:28:27.489Z,14.23
2018-05-10T06:30:56.254Z,14.57
2018-05-10T06:33:24.464Z,14.60
2018-05-10T06:35:52.651Z,15.77
2018-05-10T06:38:21.374Z,14.27
2018-05-10T06:40:49.598Z,15.03
2018-05-10T06:43:17.809Z,14.70
2018-05-10T06:45:46.625Z,15.60
2018-05-10T06:48:14.817Z,15.87
2018-05-10T06:50:43.025Z,15.00
2018-05-10T06:53:11.754Z,14.47
2018-05-10T06:55:39.930Z,14.73
2018-05-10T06:58:08.114Z,13.93
2018-05-10T07:00:36.918Z,13.00
2018-05-10T07:03:05.095Z,13.67
2018-05-10T07:05:33.322Z,13.93
2018-05-10T07:08:02.179Z,12.77
2018-05-10T07:10:30.518Z,13.77
2018-05-10T07:12:59.175Z,14.07
2018-05-10T07:15:27.820Z,14.43
2018-05-10T07:17:56.058Z,14.20
2018-05-10T07:20:24.378Z,13.80
2018-05-10T07:23:13.824Z,13.43
2018-05-10T07:25:49.240Z,14.13
2018-05-10T07:28:17.451Z,14.67
2018-05-10T07:30:45.676Z,15.10
2018-05-10T07:33:13.995Z,14.53
2018-05-10T07:35:42.786Z,13.50
2018-05-10T07:38:11.002Z,11.77
2018-05-10T07:40:39.184Z,10.60
2018-05-10T07:43:07.998Z,11.20
2018-05-10T07:45:36.194Z,11.40
2018-05-10T07:48:04.479Z,10.97
2018-05-10T07:50:33.195Z,10.97
2018-05-10T07:53:01.371Z,9.97
2018-05-10T07:55:29.548Z,9.83
2018-05-10T07:57:58.270Z,9.30
2018-05-10T08:00:26.479Z,8.40
2018-05-10T08:02:54.690Z,6.77
2018-05-10T08:05:23.339Z,7.20
2018-05-10T08:07:51.559Z,7.20
2018-05-10T08:10:19.739Z,8.87
2018-05-10T08:12:48.535Z,10.17
2018-05-10T08:15:16.753Z,13.27
2018-05-10T08:17:45.348Z,15.13
2018-05-10T08:20:14.211Z,14.50
2018-05-10T08:22:42.441Z,16.03
2018-05-10T08:25:10.762Z,15.07
2018-05-10T08:27:47.636Z,14.53
2018-05-10T08:30:16.085Z,13.07
2018-05-10T08:32:44.566Z,10.83
2018-05-10T08:35:12.799Z,6.53
2018-05-10T08:37:40.980Z,5.13
2018-05-10T08:40:09.671Z,5.27
2018-05-10T08:42:37.837Z,4.10
2018-05-10T08:45:06.172Z,4.63
2018-05-10T08:47:34.759Z,4.70
2018-05-10T08:50:02.968Z,4.13
2018-05-10T08:52:31.361Z,4.10
2018-05-10T08:54:59.875Z,3.80
2018-05-10T08:57:28.060Z,2.80
2018-05-10T08:59:56.528Z,2.93
2018-05-10T09:02:25.086Z,3.30
2018-05-10T09:04:53.319Z,4.47
2018-05-10T09:07:21.777Z,3.90
2018-05-10T09:09:50.313Z,3.70
2018-05-10T09:12:18.522Z,5.07
2018-05-10T09:14:46.868Z,5.07
2018-05-10T09:17:15.478Z,5.30
2018-05-10T09:19:43.691Z,2.87
2018-05-10T09:22:12.105Z,2.80
2018-05-10T09:24:40.727Z,2.57
2018-05-10T09:27:10.129Z,2.37
2018-05-10T09:29:38.316Z,2.60
2018-05-10T09:32:06.554Z,1.83
2018-05-10T09:34:35.239Z,2.47
2018-05-10T09:37:03.403Z,2.23
2018-05-10T09:39:31.909Z,2.97
2018-05-10T09:42:00.385Z,2.40
2018-05-10T09:44:28.542Z,2.50
2018-05-10T09:46:56.814Z,2.03
2018-05-10T09:49:25.634Z,2.57
2018-05-10T09:51:53.819Z,3.17
2018-05-10T09:54:22.379Z,2.90
2018-05-10T09:56:50.689Z,2.53
2018-05-10T09:59:18.880Z,2.77
2018-05-10T10:01:47.180Z,2.90
2018-05-10T10:04:15.917Z,3.30
2018-05-10T10:06:44.100Z,3.43
2018-05-10T10:09:12.297Z,3.30
2018-05-10T10:11:41.515Z,3.33
2018-05-10T10:14:09.725Z,4.10
2018-05-10T10:16:38.285Z,3.60
2018-05-10T10:19:06.911Z,4.33
2018-05-10T10:21:35.207Z,4.23
2018-05-10T10:24:03.418Z,3.50
2018-05-10T10:26:32.004Z,4.07
2018-05-10T10:29:00.228Z,4.40
2018-05-10T10:31:28.551Z,4.43
2018-05-10T10:33:57.136Z,4.00
2018-05-10T10:36:25.350Z,4.43
2018-05-10T10:38:53.686Z,4.80
2018-05-10T10:41:23.935Z,4.97
2018-05-10T10:43:52.617Z,6.03
2018-05-10T10:46:20.838Z,5.53
2018-05-10T10:48:49.062Z,5.37
2018-05-10T10:51:17.805Z,6.53
2018-05-10T10:53:46.132Z,5.90
2018-05-10T10:56:14.261Z,6.50
2018-05-10T10:58:43.087Z,7.67
2018-05-10T11:01:11.335Z,9.13
2018-05-10T11:03:39.563Z,9.50
2018-05-10T11:06:08.159Z,9.73
2018-05-10T11:08:36.423Z,9.77
2018-05-10T11:11:04.662Z,10.10
2018-05-10T11:13:33.618Z,12.33
2018-05-10T11:16:02.568Z,14.90
2018-05-10T11:18:30.785Z,15.80
2018-05-10T11:20:59.012Z,16.60
2018-05-10T11:23:27.605Z,15.67
2018-05-10T11:25:55.812Z,15.00
2018-05-10T11:28:24.052Z,15.23
2018-05-10T11:30:52.869Z,17.53
2018-05-10T11:33:27.965Z,17.50
2018-05-10T11:35:56.194Z,17.73
2018-05-10T11:38:24.405Z,17.70
2018-05-10T11:40:53.100Z,17.50
2018-05-10T11:43:21.314Z,18.13
2018-05-10T11:45:49.675Z,17.43
2018-05-10T11:48:18.353Z,19.23
2018-05-10T11:50:46.551Z,18.77
2018-05-10T11:53:14.824Z,19.87
2018-05-10T11:55:43.515Z,20.27
2018-05-10T11:58:11.718Z,20.83
2018-05-10T12:00:46.543Z,19.57
2018-05-10T12:03:14.898Z,20.87
2018-05-10T12:05:43.631Z,21.40
2018-05-10T12:08:12.501Z,19.37
2018-05-10T12:42:17.832Z,19.27
2018-05-10T12:44:46.360Z,18.90
2018-05-10T12:47:15.247Z,18.27
2018-05-10T12:49:43.364Z,18.27
2018-05-10T12:52:11.572Z,17.43
2018-05-10T12:54:40.291Z,17.77
2018-05-10T12:57:08.465Z,17.53
2018-05-10T12:59:36.662Z,17.97
2018-05-10T13:02:05.427Z,17.10
2018-05-10T13:04:33.642Z,18.90
2018-05-10T13:07:01.872Z,20.43
2018-05-10T13:09:30.563Z,20.00
2018-05-10T13:11:58.771Z,19.73
2018-05-10T13:14:27.465Z,18.33
2018-05-10T13:16:56.138Z,18.57
2018-05-10T13:19:24.434Z,20.37
2018-05-10T13:21:53.237Z,18.97
2018-05-10T13:24:22.035Z,18.77
2018-05-10T13:26:50.243Z,19.53
2018-05-10T13:29:18.582Z,18.93
2018-05-10T13:31:47.393Z,19.43
2018-05-10T13:34:16.401Z,18.97
2018-05-10T13:36:44.609Z,19.00
2018-05-10T13:39:13.442Z,19.00
2018-05-10T13:41:42.331Z,18.27
2018-05-10T13:44:10.573Z,18.30
2018-05-10T13:46:38.813Z,19.53
2018-05-10T13:49:07.795Z,19.57
2018-05-10T13:51:36.476Z,18.10
2018-05-10T13:54:04.704Z,19.63
2018-05-10T13:56:33.465Z,17.77
2018-05-10T13:59:02.508Z,18.63
2018-05-10T14:01:31.401Z,17.80
2018-05-10T14:03:59.586Z,17.93
2018-05-10T14:06:28.411Z,19.33
2018-05-10T14:08:57.322Z,19.07
2018-05-10T14:11:25.542Z,17.53
2018-05-10T14:13:53.726Z,17.30
2018-05-10T14:16:22.378Z,17.30
2018-05-10T14:18:50.793Z,15.80
2018-05-10T14:21:18.990Z,16.03
2018-05-10T14:23:47.747Z,14.63
2018-05-10T14:26:16.430Z,15.37
2018-05-10T14:28:44.680Z,13.77
2018-05-10T14:31:13.446Z,13.70
2018-05-10T14:33:42.460Z,13.70
2018-05-10T14:36:11.370Z,12.97
2018-05-10T14:38:39.592Z,13.17
2018-05-10T14:41:08.375Z,12.57
2018-05-10T14:43:36.845Z,11.73
2018-05-10T14:46:05.072Z,12.67
2018-05-10T14:48:33.376Z,11.73
2018-05-10T14:51:02.033Z,11.87
2018-05-10T14:53:30.252Z,11.77
2018-05-10T14:55:58.543Z,10.23
2018-05-10T14:58:27.051Z,10.43
2018-05-10T15:00:55.250Z,10.10
2018-05-10T15:03:23.706Z,9.43
2018-05-10T15:05:52.311Z,9.80
2018-05-10T15:08:20.597Z,13.80
2018-05-10T15:10:48.924Z,8.90
2018-05-10T15:13:17.475Z,8.40
2018-05-10T15:15:45.672Z,8.20
2018-05-10T15:18:13.841Z,7.80
2018-05-10T15:20:42.588Z,6.23
2018-05-10T15:23:10.793Z,5.90
2018-05-10T15:25:39.044Z,5.07
2018-05-10T15:28:07.759Z,5.97
2018-05-10T15:30:36.127Z,6.33
2018-05-10T15:33:04.600Z,5.50
2018-05-10T15:35:33.464Z,5.30
2018-05-10T15:38:01.634Z,5.23
2018-05-10T15:40:29.835Z,4.60
2018-05-10T15:42:59.096Z,4.17
2018-05-10T15:45:27.282Z,5.00
2018-05-10T15:47:55.733Z,5.13
2018-05-10T15:50:24.223Z,4.83
2018-05-10T15:52:52.390Z,4.63
2018-05-10T15:55:20.867Z,4.57
2018-05-10T15:57:49.469Z,4.57
2018-05-10T16:00:17.656Z,4.83
2018-05-10T16:02:46.013Z,4.13
2018-05-10T16:05:14.544Z,4.20
2018-05-10T16:07:42.729Z,4.50
2018-05-10T16:10:11.528Z,5.20
2018-05-10T16:12:40.147Z,4.03
2018-05-10T16:15:08.530Z,4.47
2018-05-10T16:17:37.298Z,4.47
2018-05-10T16:20:05.780Z,5.13
2018-05-10T16:22:33.994Z,6.63
2018-05-10T16:25:02.473Z,5.00
2018-05-10T16:27:31.036Z,4.87
2018-05-10T16:29:59.250Z,5.27
2018-05-10T16:32:27.584Z,4.77
2018-05-10T16:34:56.160Z,4.03
2018-05-10T16:37:24.367Z,5.07
2018-05-10T16:40:01.823Z,3.90
2018-05-10T16:42:31.284Z,4.30
2018-05-10T16:44:59.518Z,4.03
2018-05-10T16:47:27.823Z,3.67
2018-05-10T16:49:56.459Z,4.57
2018-05-10T16:52:24.643Z,4.27
2018-05-10T16:54:52.832Z,4.00
2018-05-10T16:57:21.572Z,4.60
2018-05-10T16:59:49.796Z,4.30
2018-05-10T17:02:18.124Z,4.13
2018-05-10T17:04:47.100Z,4.93
2018-05-10T17:07:15.324Z,4.00
2018-05-10T17:09:43.826Z,4.30
2018-05-10T17:12:12.504Z,4.00
2018-05-10T17:14:40.694Z,4.27
2018-05-10T17:17:09.062Z,4.80
2018-05-10T17:19:37.621Z,3.63
2018-05-10T17:22:05.822Z,4.63
2018-05-10T17:24:34.189Z,4.00
2018-05-10T17:27:02.856Z,4.20
2018-05-10T17:29:31.029Z,4.43
2018-05-10T17:31:59.421Z,4.60
2018-05-10T17:34:28.006Z,5.20
2018-05-10T17:36:56.217Z,4.30
2018-05-10T17:39:24.501Z,4.50
2018-05-10T17:41:53.125Z,4.37
2018-05-10T17:44:21.311Z,3.90
2018-05-10T17:46:49.830Z,4.13
2018-05-10T17:49:18.311Z,4.10
2018-05-10T17:51:46.641Z,3.70
2018-05-10T17:54:15.281Z,3.40
2018-05-10T17:56:43.754Z,2.97
2018-05-10T17:59:11.947Z,3.77
2018-05-10T18:01:40.980Z,3.77
2018-05-10T18:04:09.837Z,2.90
2018-05-10T18:06:38.892Z,3.27
2018-05-10T18:09:07.055Z,2.70
2018-05-10T18:11:36.268Z,3.30
2018-05-10T18:14:05.192Z,3.50
2018-05-10T18:16:33.930Z,3.30
2018-05-10T18:19:02.132Z,2.83
2018-05-10T18:21:31.080Z,3.53
2018-05-10T18:23:59.961Z,3.43
2018-05-10T18:26:29.006Z,3.37
2018-05-10T18:28:57.175Z,3.20
2018-05-10T18:31:26.099Z,3.07
2018-05-10T18:33:54.919Z,2.90
2018-05-10T18:36:23.510Z,2.70
2018-05-10T18:38:53.148Z,3.10
2018-05-10T18:41:21.376Z,3.50
2018-05-10T18:43:50.180Z,3.30
2018-05-10T18:46:18.437Z,3.43
2018-05-10T18:48:46.624Z,3.00
2018-05-10T18:51:15.632Z,3.03
2018-05-10T18:53:44.349Z,3.10
2018-05-10T18:56:12.564Z,2.93
2018-05-10T18:58:41.393Z,2.83
2018-05-10T19:01:10.250Z,3.20
2018-05-10T19:03:39.250Z,3.40
2018-05-10T19:06:07.506Z,3.33
2018-05-10T19:08:36.403Z,3.03
2018-05-10T19:11:05.837Z,2.90
2018-05-10T19:13:34.277Z,2.70
2018-05-10T19:16:03.107Z,3.73
2018-05-10T19:18:31.555Z,4.23
2018-05-10T19:21:00.485Z,2.40
2018-05-10T19:23:29.372Z,3.23
2018-05-10T19:25:57.576Z,2.60
2018-05-10T19:28:26.399Z,2.67
2018-05-10T19:30:55.390Z,3.57
2018-05-10T19:33:24.429Z,4.60
2018-05-10T19:35:52.621Z,2.60
2018-05-10T19:38:21.437Z,3.00
2018-05-10T19:40:50.406Z,2.83
2018-05-10T19:43:18.758Z,3.13
2018-05-10T19:45:46.934Z,2.50
2018-05-10T19:48:15.832Z,3.60
2018-05-10T19:50:44.409Z,3.37
2018-05-10T19:53:12.628Z,3.00
2018-05-10T19:55:41.465Z,2.57
2018-05-10T19:58:10.329Z,3.13
2018-05-10T20:00:39.356Z,3.00
2018-05-10T20:03:07.524Z,2.97
2018-05-10T20:05:36.409Z,3.10
2018-05-10T20:08:05.447Z,3.70
2018-05-10T20:10:34.401Z,2.90
2018-05-10T20:13:02.774Z,2.80
2018-05-10T20:15:31.503Z,3.63
2018-05-10T20:18:00.318Z,3.47
2018-05-10T20:20:28.545Z,2.93
2018-05-10T20:22:56.730Z,2.83
2018-05-10T20:25:25.430Z,3.70
2018-05-10T20:27:54.427Z,4.03
2018-05-10T20:30:22.595Z,3.13
2018-05-10T20:32:50.799Z,7.83
2018-05-10T20:35:19.596Z,3.60
2018-05-10T20:37:47.782Z,3.17
2018-05-10T20:40:16.707Z,3.43
2018-05-10T20:42:45.786Z,3.20
2018-05-10T20:45:14.686Z,3.90
2018-05-10T20:47:42.873Z,3.77
2018-05-10T20:50:11.722Z,3.70
2018-05-10T20:52:40.211Z,4.10
2018-05-10T20:55:08.479Z,3.57
2018-05-10T20:57:36.831Z,3.30
2018-05-10T21:00:05.336Z,3.87
2018-05-10T21:02:33.530Z,3.77
2018-05-10T21:05:01.950Z,4.30
2018-05-10T21:07:30.556Z,4.33
2018-05-10T21:09:58.792Z,4.10
2018-05-10T21:12:47.925Z,4.33
2018-05-10T21:15:16.419Z,4.03
2018-05-10T21:17:45.215Z,4.63
2018-05-10T21:20:13.390Z,5.40
2018-05-10T21:22:41.633Z,4.70
2018-05-10T21:25:10.334Z,4.90
2018-05-10T21:27:38.504Z,4.70
2018-05-10T21:30:07.029Z,4.80
2018-05-10T21:32:35.225Z,4.93
2018-05-10T21:35:04.603Z,5.30
2018-05-10T21:37:33.221Z,5.00
2018-05-10T21:40:01.908Z,4.93
2018-05-10T21:42:30.128Z,4.80
2018-05-10T21:44:58.422Z,5.23
2018-05-10T21:47:26.974Z,5.30
2018-05-10T21:50:04.868Z,5.13
2018-05-10T21:52:33.696Z,5.73
2018-05-10T21:55:02.322Z,5.83
2018-05-10T21:57:30.465Z,5.93
2018-05-10T21:59:58.728Z,6.60
2018-05-10T22:02:27.425Z,6.50
2018-05-10T22:04:55.613Z,6.43
2018-05-10T22:07:23.979Z,7.17
2018-05-10T22:09:52.548Z,7.03
2018-05-10T22:12:20.797Z,6.53
2018-05-10T22:14:49.205Z,6.93
2018-05-10T22:17:17.773Z,6.50
2018-05-10T22:19:46.040Z,6.13
2018-05-10T22:22:14.375Z,6.93
2018-05-10T22:24:42.850Z,7.33
2018-05-10T22:27:11.031Z,6.37
2018-05-10T22:29:39.397Z,6.40
2018-05-10T22:32:08.063Z,6.67
2018-05-10T22:34:36.252Z,6.57
2018-05-10T22:37:04.631Z,7.07
2018-05-10T22:39:33.199Z,7.73
2018-05-10T22:42:01.421Z,7.67
2018-05-10T22:44:29.831Z,6.77
2018-05-10T22:46:58.387Z,7.03
2018-05-10T22:49:26.642Z,7.47
2018-05-10T22:51:54.906Z,7.40
2018-05-10T22:54:23.537Z,6.97
2018-05-10T22:56:51.721Z,7.83
2018-05-10T22:59:20.134Z,7.23
2018-05-10T23:01:48.748Z,6.63
2018-05-10T23:04:17.007Z,7.33
2018-05-10T23:06:45.362Z,7.10
2018-05-10T23:09:13.965Z,7.37
2018-05-10T23:11:42.140Z,7.53
2018-05-10T23:14:10.599Z,7.80
2018-05-10T23:16:39.169Z,7.87
2018-05-10T23:19:07.383Z,7.47
2018-05-10T23:21:35.732Z,7.73
2018-05-10T23:24:04.345Z,8.30
2018-05-10T23:26:32.566Z,7.37
2018-05-10T23:29:00.965Z,7.67
2018-05-10T23:31:29.610Z,7.23
2018-05-10T23:33:57.787Z,7.60
2018-05-10T23:36:26.115Z,8.27
2018-05-10T23:38:54.687Z,8.17
2018-05-10T23:41:22.866Z,7.53
2018-05-10T23:43:51.227Z,8.37
2018-05-10T23:46:19.891Z,8.50
2018-05-10T23:48:48.151Z,9.37
2018-05-10T23:51:16.389Z,8.27
2018-05-10T23:53:45.078Z,8.70
2018-05-10T23:56:13.294Z,8.47
2018-05-10T23:58:41.628Z,8.40
